sensor_id;sensor_type;location;lat;lon;timestamp;P1;P2;P0
42510;PMS7003;28141;51.120;17.114;2022-08-19T00:01:18;14;8;6
42510;PMS7003;28141;51.120;17.114;2022-08-19T00:04:23;14;7;5
42510;PMS7003;28141;51.120;17.114;2022-08-19T00:07:57;16;8;5
42510;PMS7003;28141;51.120;17.114;2022-08-19T00:11:01;14;7;5
42510;PMS7003;28141;51.120;17.114;2022-08-19T00:14:05;15;8;5
42510;PMS7003;28141;51.120;17.114;2022-08-19T00:17:12;15;8;6
42510;PMS7003;28141;51.120;17.114;2022-08-19T00:20:17;17;11;7
42510;PMS7003;28141;51.120;17.114;2022-08-19T00:23:23;16;9;6
42510;PMS7003;28141;51.120;17.114;2022-08-19T00:26:27;16;8;6
42510;PMS7003;28141;51.120;17.114;2022-08-19T00:29:31;14;7;6
42510;PMS7003;28141;51.120;17.114;2022-08-19T00:32:34;13;7;6
42510;PMS7003;28141;51.120;17.114;2022-08-19T00:35:37;14;7;5
42510;PMS7003;28141;51.120;17.114;2022-08-19T00:39:10;15;9;5
42510;PMS7003;28141;51.120;17.114;2022-08-19T00:42:15;14;6;5
42510;PMS7003;28141;51.120;17.114;2022-08-19T00:45:20;15;7;5
42510;PMS7003;28141;51.120;17.114;2022-08-19T00:48:25;15;8;5
42510;PMS7003;28141;51.120;17.114;2022-08-19T00:51:29;17;9;6
42510;PMS7003;28141;51.120;17.114;2022-08-19T00:54:35;17;9;6
42510;PMS7003;28141;51.120;17.114;2022-08-19T00:57:42;15;8;5
42510;PMS7003;28141;51.120;17.114;2022-08-19T01:00:48;15;8;5
42510;PMS7003;28141;51.120;17.114;2022-08-19T01:03:52;14;7;6
42510;PMS7003;28141;51.120;17.114;2022-08-19T01:07:24;12;6;5
42510;PMS7003;28141;51.120;17.114;2022-08-19T01:10:29;13;6;5
42510;PMS7003;28141;51.120;17.114;2022-08-19T01:13:35;16;9;5
42510;PMS7003;28141;51.120;17.114;2022-08-19T01:16:39;13;7;5
42510;PMS7003;28141;51.120;17.114;2022-08-19T01:19:45;15;7;6
42510;PMS7003;28141;51.120;17.114;2022-08-19T01:22:51;15;8;6
42510;PMS7003;28141;51.120;17.114;2022-08-19T01:25:57;15;8;6
42510;PMS7003;28141;51.120;17.114;2022-08-19T01:29:00;13;7;6
42510;PMS7003;28141;51.120;17.114;2022-08-19T01:32:03;14;7;5
42510;PMS7003;28141;51.120;17.114;2022-08-19T01:35:37;14;7;5
42510;PMS7003;28141;51.120;17.114;2022-08-19T01:38:41;13;6;5
42510;PMS7003;28141;51.120;17.114;2022-08-19T01:41:47;14;7;5
42510;PMS7003;28141;51.120;17.114;2022-08-19T01:44:51;14;7;6
42510;PMS7003;28141;51.120;17.114;2022-08-19T01:47:55;14;7;5
42510;PMS7003;28141;51.120;17.114;2022-08-19T01:50:59;15;8;5
42510;PMS7003;28141;51.120;17.114;2022-08-19T01:54:02;14;7;5
42510;PMS7003;28141;51.120;17.114;2022-08-19T01:57:10;15;7;6
42510;PMS7003;28141;51.120;17.114;2022-08-19T02:00:16;14;7;4
42510;PMS7003;28141;51.120;17.114;2022-08-19T02:03:51;13;7;5
42510;PMS7003;28141;51.120;17.114;2022-08-19T02:06:57;16;10;6
42510;PMS7003;28141;51.120;17.114;2022-08-19T02:10:04;13;7;5
42510;PMS7003;28141;51.120;17.114;2022-08-19T02:13:10;12;6;4
42510;PMS7003;28141;51.120;17.114;2022-08-19T02:16:16;14;6;4
42510;PMS7003;28141;51.120;17.114;2022-08-19T02:19:20;15;7;5
42510;PMS7003;28141;51.120;17.114;2022-08-19T02:22:24;13;7;5
42510;PMS7003;28141;51.120;17.114;2022-08-19T02:25:28;14;7;6
42510;PMS7003;28141;51.120;17.114;2022-08-19T02:28:32;14;6;5
42510;PMS7003;28141;51.120;17.114;2022-08-19T02:32:07;14;7;5
42510;PMS7003;28141;51.120;17.114;2022-08-19T02:35:11;14;7;6
42510;PMS7003;28141;51.120;17.114;2022-08-19T02:38:15;14;6;4
42510;PMS7003;28141;51.120;17.114;2022-08-19T02:41:29;14;6;4
42510;PMS7003;28141;51.120;17.114;2022-08-19T02:44:34;12;6;4
42510;PMS7003;28141;51.120;17.114;2022-08-19T02:47:37;14;7;5
42510;PMS7003;28141;51.120;17.114;2022-08-19T02:50:40;13;6;4
42510;PMS7003;28141;51.120;17.114;2022-08-19T02:53:44;14;7;5
42510;PMS7003;28141;51.120;17.114;2022-08-19T02:56:47;13;7;4
42510;PMS7003;28141;51.120;17.114;2022-08-19T03:00:19;14;8;4
42510;PMS7003;28141;51.120;17.114;2022-08-19T03:03:23;15;8;7
42510;PMS7003;28141;51.120;17.114;2022-08-19T03:06:27;15;8;6
42510;PMS7003;28141;51.120;17.114;2022-08-19T03:09:31;15;8;6
42510;PMS7003;28141;51.120;17.114;2022-08-19T03:12:37;15;8;5
42510;PMS7003;28141;51.120;17.114;2022-08-19T03:15:42;17;10;7
42510;PMS7003;28141;51.120;17.114;2022-08-19T03:18:47;15;8;6
42510;PMS7003;28141;51.120;17.114;2022-08-19T03:21:52;17;10;8
42510;PMS7003;28141;51.120;17.114;2022-08-19T03:24:56;16;10;7
42510;PMS7003;28141;51.120;17.114;2022-08-19T03:27:59;17;10;8
42510;PMS7003;28141;51.120;17.114;2022-08-19T03:31:28;20;12;7
42510;PMS7003;28141;51.120;17.114;2022-08-19T03:34:34;17;10;8
42510;PMS7003;28141;51.120;17.114;2022-08-19T03:37:39;18;12;8
42510;PMS7003;28141;51.120;17.114;2022-08-19T03:40:43;21;13;9
42510;PMS7003;28141;51.120;17.114;2022-08-19T03:43:47;18;11;7
42510;PMS7003;28141;51.120;17.114;2022-08-19T03:46:53;19;11;8
42510;PMS7003;28141;51.120;17.114;2022-08-19T03:49:58;20;12;9
42510;PMS7003;28141;51.120;17.114;2022-08-19T03:53:02;22;14;10
42510;PMS7003;28141;51.120;17.114;2022-08-19T03:56:05;18;12;8
42510;PMS7003;28141;51.120;17.114;2022-08-19T03:59:38;21;13;8
42510;PMS7003;28141;51.120;17.114;2022-08-19T04:02:42;22;15;10
42510;PMS7003;28141;51.120;17.114;2022-08-19T04:05:46;22;14;8
42510;PMS7003;28141;51.120;17.114;2022-08-19T04:08:50;20;13;9
42510;PMS7003;28141;51.120;17.114;2022-08-19T04:11:56;20;14;9
42510;PMS7003;28141;51.120;17.114;2022-08-19T04:15:00;21;13;10
42510;PMS7003;28141;51.120;17.114;2022-08-19T04:18:04;25;17;11
42510;PMS7003;28141;51.120;17.114;2022-08-19T04:21:14;21;14;10
42510;PMS7003;28141;51.120;17.114;2022-08-19T04:24:20;21;14;10
42510;PMS7003;28141;51.120;17.114;2022-08-19T04:27:51;24;15;11
42510;PMS7003;28141;51.120;17.114;2022-08-19T04:30:54;22;14;10
42510;PMS7003;28141;51.120;17.114;2022-08-19T04:33:59;21;13;10
42510;PMS7003;28141;51.120;17.114;2022-08-19T04:37:05;24;17;11
42510;PMS7003;28141;51.120;17.114;2022-08-19T04:40:15;24;16;10
42510;PMS7003;28141;51.120;17.114;2022-08-19T04:43:30;24;16;11
42510;PMS7003;28141;51.120;17.114;2022-08-19T04:46:35;23;15;12
42510;PMS7003;28141;51.120;17.114;2022-08-19T04:50:05;23;17;10
42510;PMS7003;28141;51.120;17.114;2022-08-19T04:53:10;20;13;10
42510;PMS7003;28141;51.120;17.114;2022-08-19T04:56:14;22;15;11
42510;PMS7003;28141;51.120;17.114;2022-08-19T04:59:21;22;14;10
42510;PMS7003;28141;51.120;17.114;2022-08-19T05:02:25;23;15;10
42510;PMS7003;28141;51.120;17.114;2022-08-19T05:05:28;23;15;11
42510;PMS7003;28141;51.120;17.114;2022-08-19T05:08:35;23;16;12
42510;PMS7003;28141;51.120;17.114;2022-08-19T05:11:39;22;15;12
42510;PMS7003;28141;51.120;17.114;2022-08-19T05:14:42;23;16;11
42510;PMS7003;28141;51.120;17.114;2022-08-19T05:18:15;23;16;11
42510;PMS7003;28141;51.120;17.114;2022-08-19T05:21:31;25;16;11
42510;PMS7003;28141;51.120;17.114;2022-08-19T05:24:48;22;15;11
42510;PMS7003;28141;51.120;17.114;2022-08-19T05:27:51;23;16;12
42510;PMS7003;28141;51.120;17.114;2022-08-19T05:30:55;23;15;11
42510;PMS7003;28141;51.120;17.114;2022-08-19T05:33:59;24;14;11
42510;PMS7003;28141;51.120;17.114;2022-08-19T05:37:02;25;17;11
42510;PMS7003;28141;51.120;17.114;2022-08-19T05:40:34;24;16;10
42510;PMS7003;28141;51.120;17.114;2022-08-19T05:43:41;24;16;13
42510;PMS7003;28141;51.120;17.114;2022-08-19T05:46:44;25;17;12
42510;PMS7003;28141;51.120;17.114;2022-08-19T05:49:51;23;16;11
42510;PMS7003;28141;51.120;17.114;2022-08-19T05:52:55;23;15;12
42510;PMS7003;28141;51.120;17.114;2022-08-19T05:56:03;24;14;10
42510;PMS7003;28141;51.120;17.114;2022-08-19T05:59:08;26;19;12
42510;PMS7003;28141;51.120;17.114;2022-08-19T06:02:14;28;20;13
42510;PMS7003;28141;51.120;17.114;2022-08-19T06:05:17;25;16;11
42510;PMS7003;28141;51.120;17.114;2022-08-19T06:08:48;24;17;12
42510;PMS7003;28141;51.120;17.114;2022-08-19T06:11:54;25;17;13
42510;PMS7003;28141;51.120;17.114;2022-08-19T06:15:05;24;17;13
42510;PMS7003;28141;51.120;17.114;2022-08-19T06:18:16;24;17;12
42510;PMS7003;28141;51.120;17.114;2022-08-19T06:21:20;28;19;14
42510;PMS7003;28141;51.120;17.114;2022-08-19T06:24:27;24;16;12
42510;PMS7003;28141;51.120;17.114;2022-08-19T06:27:32;29;20;12
42510;PMS7003;28141;51.120;17.114;2022-08-19T06:31:05;28;20;13
42510;PMS7003;28141;51.120;17.114;2022-08-19T06:34:10;24;17;12
42510;PMS7003;28141;51.120;17.114;2022-08-19T06:37:13;24;17;12
42510;PMS7003;28141;51.120;17.114;2022-08-19T06:40:17;28;20;14
42510;PMS7003;28141;51.120;17.114;2022-08-19T06:43:21;25;18;13
42510;PMS7003;28141;51.120;17.114;2022-08-19T06:46:25;25;18;12
42510;PMS7003;28141;51.120;17.114;2022-08-19T06:49:29;26;18;13
42510;PMS7003;28141;51.120;17.114;2022-08-19T06:52:35;28;21;14
42510;PMS7003;28141;51.120;17.114;2022-08-19T06:55:39;28;19;14
42510;PMS7003;28141;51.120;17.114;2022-08-19T06:59:17;25;17;13
42510;PMS7003;28141;51.120;17.114;2022-08-19T07:02:23;28;20;13
42510;PMS7003;28141;51.120;17.114;2022-08-19T07:05:29;28;19;14
42510;PMS7003;28141;51.120;17.114;2022-08-19T07:08:32;27;19;13
42510;PMS7003;28141;51.120;17.114;2022-08-19T07:11:43;25;16;12
42510;PMS7003;28141;51.120;17.114;2022-08-19T07:14:51;24;17;12
42510;PMS7003;28141;51.120;17.114;2022-08-19T07:17:55;28;20;14
42510;PMS7003;28141;51.120;17.114;2022-08-19T07:21:03;28;19;15
42510;PMS7003;28141;51.120;17.114;2022-08-19T07:24:40;27;19;12
42510;PMS7003;28141;51.120;17.114;2022-08-19T07:27:44;27;19;14
42510;PMS7003;28141;51.120;17.114;2022-08-19T07:30:48;32;21;14
42510;PMS7003;28141;51.120;17.114;2022-08-19T07:33:54;30;20;13
42510;PMS7003;28141;51.120;17.114;2022-08-19T07:36:59;25;17;13
42510;PMS7003;28141;51.120;17.114;2022-08-19T07:40:04;27;20;15
42510;PMS7003;28141;51.120;17.114;2022-08-19T07:43:09;28;18;12
42510;PMS7003;28141;51.120;17.114;2022-08-19T07:46:13;27;19;13
42510;PMS7003;28141;51.120;17.114;2022-08-19T07:49:17;27;19;14
42510;PMS7003;28141;51.120;17.114;2022-08-19T07:52:50;25;18;12
42510;PMS7003;28141;51.120;17.114;2022-08-19T07:55:54;25;17;11
42510;PMS7003;28141;51.120;17.114;2022-08-19T07:59:04;24;17;13
42510;PMS7003;28141;51.120;17.114;2022-08-19T08:02:08;26;16;11
42510;PMS7003;28141;51.120;17.114;2022-08-19T08:05:12;23;16;11
42510;PMS7003;28141;51.120;17.114;2022-08-19T08:08:27;28;18;13
42510;PMS7003;28141;51.120;17.114;2022-08-19T08:12:11;26;18;13
42510;PMS7003;28141;51.120;17.114;2022-08-19T08:15:16;23;17;12
42510;PMS7003;28141;51.120;17.114;2022-08-19T08:18:22;27;19;12
42510;PMS7003;28141;51.120;17.114;2022-08-19T08:21:27;26;16;12
42510;PMS7003;28141;51.120;17.114;2022-08-19T08:24:30;23;16;11
42510;PMS7003;28141;51.120;17.114;2022-08-19T08:27:36;32;20;14
42510;PMS7003;28141;51.120;17.114;2022-08-19T08:32:58;27;19;13
42510;PMS7003;28141;51.120;17.114;2022-08-19T08:36:04;25;18;13
42510;PMS7003;28141;51.120;17.114;2022-08-19T08:39:09;25;19;13
42510;PMS7003;28141;51.120;17.114;2022-08-19T08:42:18;24;17;11
42510;PMS7003;28141;51.120;17.114;2022-08-19T08:45:28;26;17;12
42510;PMS7003;28141;51.120;17.114;2022-08-19T08:55:29;26;16;11
42510;PMS7003;28141;51.120;17.114;2022-08-19T08:58:41;26;17;12
42510;PMS7003;28141;51.120;17.114;2022-08-19T09:01:50;23;14;10
42510;PMS7003;28141;51.120;17.114;2022-08-19T09:04:54;24;16;12
42510;PMS7003;28141;51.120;17.114;2022-08-19T09:08:00;24;15;11
42510;PMS7003;28141;51.120;17.114;2022-08-19T09:18:00;23;16;12
42510;PMS7003;28141;51.120;17.114;2022-08-19T09:21:05;22;14;10
42510;PMS7003;28141;51.120;17.114;2022-08-19T09:24:11;23;16;12
42510;PMS7003;28141;51.120;17.114;2022-08-19T09:27:43;21;15;10
42510;PMS7003;28141;51.120;17.114;2022-08-19T09:30:47;23;16;11
42510;PMS7003;28141;51.120;17.114;2022-08-19T09:33:51;21;14;11
42510;PMS7003;28141;51.120;17.114;2022-08-19T09:36:59;22;14;9
42510;PMS7003;28141;51.120;17.114;2022-08-19T09:40:05;21;15;10
42510;PMS7003;28141;51.120;17.114;2022-08-19T09:43:10;23;15;11
42510;PMS7003;28141;51.120;17.114;2022-08-19T09:46:13;23;15;10
42510;PMS7003;28141;51.120;17.114;2022-08-19T09:49:21;22;14;11
42510;PMS7003;28141;51.120;17.114;2022-08-19T09:52:25;24;14;11
42510;PMS7003;28141;51.120;17.114;2022-08-19T09:55:56;27;19;13
42510;PMS7003;28141;51.120;17.114;2022-08-19T09:59:00;22;15;11
42510;PMS7003;28141;51.120;17.114;2022-08-19T10:02:06;23;14;11
42510;PMS7003;28141;51.120;17.114;2022-08-19T10:05:10;21;14;11
42510;PMS7003;28141;51.120;17.114;2022-08-19T10:08:27;24;15;11
42510;PMS7003;28141;51.120;17.114;2022-08-19T10:11:33;24;16;11
42510;PMS7003;28141;51.120;17.114;2022-08-19T10:14:39;22;15;10
42510;PMS7003;28141;51.120;17.114;2022-08-19T10:18:11;22;15;10
42510;PMS7003;28141;51.120;17.114;2022-08-19T10:24:26;22;13;10
42510;PMS7003;28141;51.120;17.114;2022-08-19T10:27:30;23;15;10
42510;PMS7003;28141;51.120;17.114;2022-08-19T10:30:37;22;14;10
42510;PMS7003;28141;51.120;17.114;2022-08-19T10:33:42;21;13;9
42510;PMS7003;28141;51.120;17.114;2022-08-19T10:36:46;19;12;9
42510;PMS7003;28141;51.120;17.114;2022-08-19T10:39:50;20;12;9
42510;PMS7003;28141;51.120;17.114;2022-08-19T10:43:23;20;13;9
42510;PMS7003;28141;51.120;17.114;2022-08-19T10:46:27;21;14;9
42510;PMS7003;28141;51.120;17.114;2022-08-19T10:49:35;20;13;9
42510;PMS7003;28141;51.120;17.114;2022-08-19T10:52:49;20;12;8
42510;PMS7003;28141;51.120;17.114;2022-08-19T10:55:53;21;12;9
42510;PMS7003;28141;51.120;17.114;2022-08-19T10:59:08;18;11;8
42510;PMS7003;28141;51.120;17.114;2022-08-19T11:02:41;20;10;8
42510;PMS7003;28141;51.120;17.114;2022-08-19T11:05:44;21;13;9
42510;PMS7003;28141;51.120;17.114;2022-08-19T11:08:48;19;11;8
42510;PMS7003;28141;51.120;17.114;2022-08-19T11:11:51;18;12;8
42510;PMS7003;28141;51.120;17.114;2022-08-19T11:14:56;18;10;8
42510;PMS7003;28141;51.120;17.114;2022-08-19T11:17:59;20;12;8
42510;PMS7003;28141;51.120;17.114;2022-08-19T11:24:20;19;10;9
42510;PMS7003;28141;51.120;17.114;2022-08-19T11:27:26;20;12;9
42510;PMS7003;28141;51.120;17.114;2022-08-19T11:30:57;18;11;8
42510;PMS7003;28141;51.120;17.114;2022-08-19T11:34:02;18;9;6
42510;PMS7003;28141;51.120;17.114;2022-08-19T11:37:08;16;10;8
42510;PMS7003;28141;51.120;17.114;2022-08-19T11:40:11;18;11;8
42510;PMS7003;28141;51.120;17.114;2022-08-19T11:43:15;18;12;8
42510;PMS7003;28141;51.120;17.114;2022-08-19T11:46:21;18;9;8
42510;PMS7003;28141;51.120;17.114;2022-08-19T11:49:26;18;10;7
42510;PMS7003;28141;51.120;17.114;2022-08-19T11:52:33;19;11;8
42510;PMS7003;28141;51.120;17.114;2022-08-19T11:55:37;20;12;8
42510;PMS7003;28141;51.120;17.114;2022-08-19T11:59:09;18;10;7
42510;PMS7003;28141;51.120;17.114;2022-08-19T12:02:13;20;10;7
42510;PMS7003;28141;51.120;17.114;2022-08-19T12:05:18;18;11;7
42510;PMS7003;28141;51.120;17.114;2022-08-19T12:08:21;18;10;7
42510;PMS7003;28141;51.120;17.114;2022-08-19T12:11:25;15;8;5
42510;PMS7003;28141;51.120;17.114;2022-08-19T12:14:30;16;9;6
42510;PMS7003;28141;51.120;17.114;2022-08-19T12:17:34;16;8;6
42510;PMS7003;28141;51.120;17.114;2022-08-19T12:20:38;17;10;6
42510;PMS7003;28141;51.120;17.114;2022-08-19T12:23:43;16;9;5
42510;PMS7003;28141;51.120;17.114;2022-08-19T12:26:51;15;8;6
42510;PMS7003;28141;51.120;17.114;2022-08-19T12:30:20;13;6;4
42510;PMS7003;28141;51.120;17.114;2022-08-19T12:33:24;14;6;5
42510;PMS7003;28141;51.120;17.114;2022-08-19T12:36:31;13;7;4
42510;PMS7003;28141;51.120;17.114;2022-08-19T12:39:38;13;7;4
42510;PMS7003;28141;51.120;17.114;2022-08-19T12:42:44;13;7;5
42510;PMS7003;28141;51.120;17.114;2022-08-19T12:45:51;13;6;4
42510;PMS7003;28141;51.120;17.114;2022-08-19T12:48:54;14;7;4
42510;PMS7003;28141;51.120;17.114;2022-08-19T12:52:03;14;6;4
42510;PMS7003;28141;51.120;17.114;2022-08-19T12:55:36;12;6;4
42510;PMS7003;28141;51.120;17.114;2022-08-19T12:58:40;15;6;4
42510;PMS7003;28141;51.120;17.114;2022-08-19T13:01:45;12;5;4
42510;PMS7003;28141;51.120;17.114;2022-08-19T13:04:48;13;6;4
42510;PMS7003;28141;51.120;17.114;2022-08-19T13:07:52;13;5;4
42510;PMS7003;28141;51.120;17.114;2022-08-19T13:11:05;14;7;3
42510;PMS7003;28141;51.120;17.114;2022-08-19T13:14:14;13;6;4
42510;PMS7003;28141;51.120;17.114;2022-08-19T13:17:17;12;6;4
42510;PMS7003;28141;51.120;17.114;2022-08-19T13:20:21;14;6;4
42510;PMS7003;28141;51.120;17.114;2022-08-19T13:23:51;15;7;4
42510;PMS7003;28141;51.120;17.114;2022-08-19T13:26:55;13;7;5
42510;PMS7003;28141;51.120;17.114;2022-08-19T13:29:59;12;6;4
42510;PMS7003;28141;51.120;17.114;2022-08-19T13:33:15;12;6;4
42510;PMS7003;28141;51.120;17.114;2022-08-19T13:36:19;14;7;5
42510;PMS7003;28141;51.120;17.114;2022-08-19T13:39:22;13;7;4
42510;PMS7003;28141;51.120;17.114;2022-08-19T13:42:26;11;5;3
42510;PMS7003;28141;51.120;17.114;2022-08-19T13:45:57;14;7;4
42510;PMS7003;28141;51.120;17.114;2022-08-19T13:49:00;13;5;3
42510;PMS7003;28141;51.120;17.114;2022-08-19T13:52:04;12;5;4
42510;PMS7003;28141;51.120;17.114;2022-08-19T13:55:09;13;6;5
42510;PMS7003;28141;51.120;17.114;2022-08-19T13:58:14;12;6;4
42510;PMS7003;28141;51.120;17.114;2022-08-19T14:01:19;13;6;3
42510;PMS7003;28141;51.120;17.114;2022-08-19T14:04:24;12;5;3
42510;PMS7003;28141;51.120;17.114;2022-08-19T14:07:28;15;7;4
42510;PMS7003;28141;51.120;17.114;2022-08-19T14:10:31;15;7;4
42510;PMS7003;28141;51.120;17.114;2022-08-19T14:13:36;12;6;3
42510;PMS7003;28141;51.120;17.114;2022-08-19T14:16:39;11;5;3
42510;PMS7003;28141;51.120;17.114;2022-08-19T14:19:43;13;6;4
42510;PMS7003;28141;51.120;17.114;2022-08-19T14:23:13;12;5;4
42510;PMS7003;28141;51.120;17.114;2022-08-19T14:26:17;11;5;3
42510;PMS7003;28141;51.120;17.114;2022-08-19T14:29:22;12;6;4
42510;PMS7003;28141;51.120;17.114;2022-08-19T14:32:25;13;7;4
42510;PMS7003;28141;51.120;17.114;2022-08-19T14:35:29;12;5;4
42510;PMS7003;28141;51.120;17.114;2022-08-19T14:38:37;12;6;4
42510;PMS7003;28141;51.120;17.114;2022-08-19T14:41:42;12;5;4
42510;PMS7003;28141;51.120;17.114;2022-08-19T14:44:47;14;6;4
42510;PMS7003;28141;51.120;17.114;2022-08-19T14:47:50;13;6;4
42510;PMS7003;28141;51.120;17.114;2022-08-19T14:50:55;13;6;5
42510;PMS7003;28141;51.120;17.114;2022-08-19T14:53:59;15;7;5
42510;PMS7003;28141;51.120;17.114;2022-08-19T14:57:02;15;8;5
42510;PMS7003;28141;51.120;17.114;2022-08-19T15:00:07;12;5;4
42510;PMS7003;28141;51.120;17.114;2022-08-19T15:03:44;14;8;4
42510;PMS7003;28141;51.120;17.114;2022-08-19T15:06:49;14;8;5
42510;PMS7003;28141;51.120;17.114;2022-08-19T15:09:53;14;7;5
42510;PMS7003;28141;51.120;17.114;2022-08-19T15:12:56;15;7;4
42510;PMS7003;28141;51.120;17.114;2022-08-19T15:16:01;14;6;4
42510;PMS7003;28141;51.120;17.114;2022-08-19T15:19:06;15;7;5
42510;PMS7003;28141;51.120;17.114;2022-08-19T15:22:10;13;6;5
42510;PMS7003;28141;51.120;17.114;2022-08-19T15:25:15;14;8;4
42510;PMS7003;28141;51.120;17.114;2022-08-19T15:28:24;13;7;5
42510;PMS7003;28141;51.120;17.114;2022-08-19T15:31:30;15;8;6
42510;PMS7003;28141;51.120;17.114;2022-08-19T15:34:38;15;8;6
42510;PMS7003;28141;51.120;17.114;2022-08-19T15:37:42;17;9;6
42510;PMS7003;28141;51.120;17.114;2022-08-19T15:40:50;18;10;7
42510;PMS7003;28141;51.120;17.114;2022-08-19T15:43:54;17;10;7
42510;PMS7003;28141;51.120;17.114;2022-08-19T15:47:30;16;11;8
42510;PMS7003;28141;51.120;17.114;2022-08-19T15:50:34;16;10;7
42510;PMS7003;28141;51.120;17.114;2022-08-19T15:53:39;21;13;8
42510;PMS7003;28141;51.120;17.114;2022-08-19T15:56:44;20;11;9
42510;PMS7003;28141;51.120;17.114;2022-08-19T15:59:58;19;12;9
42510;PMS7003;28141;51.120;17.114;2022-08-19T16:03:14;19;12;9
42510;PMS7003;28141;51.120;17.114;2022-08-19T16:06:55;19;13;9
42510;PMS7003;28141;51.120;17.114;2022-08-19T16:10:00;20;13;10
42510;PMS7003;28141;51.120;17.114;2022-08-19T16:13:04;22;15;10
42510;PMS7003;28141;51.120;17.114;2022-08-19T16:16:08;20;13;10
42510;PMS7003;28141;51.120;17.114;2022-08-19T16:19:12;21;13;10
42510;PMS7003;28141;51.120;17.114;2022-08-19T16:22:17;22;15;11
42510;PMS7003;28141;51.120;17.114;2022-08-19T16:25:22;21;14;11
42510;PMS7003;28141;51.120;17.114;2022-08-19T16:28:58;23;16;11
42510;PMS7003;28141;51.120;17.114;2022-08-19T16:32:03;22;16;10
42510;PMS7003;28141;51.120;17.114;2022-08-19T16:35:08;22;16;11
42510;PMS7003;28141;51.120;17.114;2022-08-19T16:38:15;21;14;10
42510;PMS7003;28141;51.120;17.114;2022-08-19T16:41:19;22;14;9
42510;PMS7003;28141;51.120;17.114;2022-08-19T16:44:24;20;14;9
42510;PMS7003;28141;51.120;17.114;2022-08-19T16:47:29;22;15;11
42510;PMS7003;28141;51.120;17.114;2022-08-19T16:50:32;23;16;11
42510;PMS7003;28141;51.120;17.114;2022-08-19T16:54:05;22;14;10
42510;PMS7003;28141;51.120;17.114;2022-08-19T16:57:10;20;13;11
42510;PMS7003;28141;51.120;17.114;2022-08-19T17:00:15;21;14;11
42510;PMS7003;28141;51.120;17.114;2022-08-19T17:03:19;22;14;10
42510;PMS7003;28141;51.120;17.114;2022-08-19T17:06:26;21;15;10
42510;PMS7003;28141;51.120;17.114;2022-08-19T17:09:32;21;14;9
42510;PMS7003;28141;51.120;17.114;2022-08-19T17:12:36;22;15;10
42510;PMS7003;28141;51.120;17.114;2022-08-19T17:15:40;22;13;10
42510;PMS7003;28141;51.120;17.114;2022-08-19T17:18:45;20;13;9
42510;PMS7003;28141;51.120;17.114;2022-08-19T17:21:48;19;12;10
42510;PMS7003;28141;51.120;17.114;2022-08-19T17:25:16;20;13;9
42510;PMS7003;28141;51.120;17.114;2022-08-19T17:28:21;20;12;8
42510;PMS7003;28141;51.120;17.114;2022-08-19T17:31:28;23;14;10
42510;PMS7003;28141;51.120;17.114;2022-08-19T17:34:33;21;15;9
42510;PMS7003;28141;51.120;17.114;2022-08-19T17:37:36;19;12;8
42510;PMS7003;28141;51.120;17.114;2022-08-19T17:40:40;20;14;10
42510;PMS7003;28141;51.120;17.114;2022-08-19T17:43:44;19;13;10
42510;PMS7003;28141;51.120;17.114;2022-08-19T17:46:48;20;13;9
42510;PMS7003;28141;51.120;17.114;2022-08-19T17:49:52;21;14;10
42510;PMS7003;28141;51.120;17.114;2022-08-19T17:53:21;18;13;9
42510;PMS7003;28141;51.120;17.114;2022-08-19T17:56:25;22;16;11
42510;PMS7003;28141;51.120;17.114;2022-08-19T17:59:30;17;11;8
42510;PMS7003;28141;51.120;17.114;2022-08-19T18:02:33;18;11;9
42510;PMS7003;28141;51.120;17.114;2022-08-19T18:05:42;20;13;9
42510;PMS7003;28141;51.120;17.114;2022-08-19T18:08:46;20;12;9
42510;PMS7003;28141;51.120;17.114;2022-08-19T18:11:53;23;15;11
42510;PMS7003;28141;51.120;17.114;2022-08-19T18:14:58;22;13;10
42510;PMS7003;28141;51.120;17.114;2022-08-19T18:18:30;19;13;10
42510;PMS7003;28141;51.120;17.114;2022-08-19T18:21:34;19;12;9
42510;PMS7003;28141;51.120;17.114;2022-08-19T18:24:38;19;12;9
42510;PMS7003;28141;51.120;17.114;2022-08-19T18:27:44;19;12;8
42510;PMS7003;28141;51.120;17.114;2022-08-19T18:30:49;18;12;8
42510;PMS7003;28141;51.120;17.114;2022-08-19T18:33:52;18;12;8
42510;PMS7003;28141;51.120;17.114;2022-08-19T18:36:56;17;10;9
42510;PMS7003;28141;51.120;17.114;2022-08-19T18:39:59;17;10;8
42510;PMS7003;28141;51.120;17.114;2022-08-19T18:43:40;17;10;8
42510;PMS7003;28141;51.120;17.114;2022-08-19T18:46:56;18;11;8
42510;PMS7003;28141;51.120;17.114;2022-08-19T18:50:12;20;13;8
42510;PMS7003;28141;51.120;17.114;2022-08-19T18:53:15;17;11;7
42510;PMS7003;28141;51.120;17.114;2022-08-19T18:56:19;18;11;7
42510;PMS7003;28141;51.120;17.114;2022-08-19T18:59:30;19;11;8
42510;PMS7003;28141;51.120;17.114;2022-08-19T19:02:59;17;11;8
42510;PMS7003;28141;51.120;17.114;2022-08-19T19:06:02;17;11;8
42510;PMS7003;28141;51.120;17.114;2022-08-19T19:09:09;19;12;7
42510;PMS7003;28141;51.120;17.114;2022-08-19T19:12:18;18;11;8
42510;PMS7003;28141;51.120;17.114;2022-08-19T19:15:22;20;11;8
42510;PMS7003;28141;51.120;17.114;2022-08-19T19:18:26;17;10;8
42510;PMS7003;28141;51.120;17.114;2022-08-19T19:21:30;17;9;7
42510;PMS7003;28141;51.120;17.114;2022-08-19T19:24:34;19;11;7
42510;PMS7003;28141;51.120;17.114;2022-08-19T19:27:39;16;9;7
42510;PMS7003;28141;51.120;17.114;2022-08-19T19:31:10;17;10;8
42510;PMS7003;28141;51.120;17.114;2022-08-19T19:34:17;18;10;7
42510;PMS7003;28141;51.120;17.114;2022-08-19T19:37:22;17;10;7
42510;PMS7003;28141;51.120;17.114;2022-08-19T19:40:26;17;10;7
42510;PMS7003;28141;51.120;17.114;2022-08-19T19:43:29;18;11;7
42510;PMS7003;28141;51.120;17.114;2022-08-19T19:46:34;18;11;7
42510;PMS7003;28141;51.120;17.114;2022-08-19T19:49:39;17;10;7
42510;PMS7003;28141;51.120;17.114;2022-08-19T19:52:44;18;11;7
42510;PMS7003;28141;51.120;17.114;2022-08-19T19:55:48;17;10;8
42510;PMS7003;28141;51.120;17.114;2022-08-19T19:59:20;17;11;8
42510;PMS7003;28141;51.120;17.114;2022-08-19T20:02:27;16;9;7
42510;PMS7003;28141;51.120;17.114;2022-08-19T20:05:31;16;10;7
42510;PMS7003;28141;51.120;17.114;2022-08-19T20:08:34;16;9;7
42510;PMS7003;28141;51.120;17.114;2022-08-19T20:11:51;16;9;6
42510;PMS7003;28141;51.120;17.114;2022-08-19T20:14:57;14;8;7
42510;PMS7003;28141;51.120;17.114;2022-08-19T20:18:27;18;11;7
42510;PMS7003;28141;51.120;17.114;2022-08-19T20:21:32;18;11;7
42510;PMS7003;28141;51.120;17.114;2022-08-19T20:24:36;17;11;8
42510;PMS7003;28141;51.120;17.114;2022-08-19T20:27:43;17;11;7
42510;PMS7003;28141;51.120;17.114;2022-08-19T20:30:47;15;9;6
42510;PMS7003;28141;51.120;17.114;2022-08-19T20:33:50;17;10;7